sensor_id;sensor_type;location;lat;lon;timestamp;temperature;humidity
8463;DHT22;4268;52.506;13.462;2022-12-07T00:00:51;3.70;99.90
8463;DHT22;4268;52.506;13.462;2022-12-07T00:03:17;3.70;99.90
8463;DHT22;4268;52.506;13.462;2022-12-07T00:05:42;3.70;99.90
8463;DHT22;4268;52.506;13.462;2022-12-07T00:08:08;3.70;99.90
8463;DHT22;4268;52.506;13.462;2022-12-07T00:10:34;3.60;99.90
8463;DHT22;4268;52.506;13.462;2022-12-07T00:12:59;3.60;99.90
8463;DHT22;4268;52.506;13.462;2022-12-07T00:15:25;3.60;99.90
8463;DHT22;4268;52.506;13.462;2022-12-07T00:17:51;3.60;99.90
8463;DHT22;4268;52.506;13.462;2022-12-07T00:20:16;3.60;99.90
8463;DHT22;4268;52.506;13.462;2022-12-07T00:22:42;3.50;99.90
8463;DHT22;4268;52.506;13.462;2022-12-07T00:25:07;3.50;99.90
8463;DHT22;4268;52.506;13.462;2022-12-07T00:27:33;3.50;99.90
8463;DHT22;4268;52.506;13.462;2022-12-07T00:29:59;3.50;99.90
8463;DHT22;4268;52.506;13.462;2022-12-07T00:32:25;3.50;99.90
8463;DHT22;4268;52.506;13.462;2022-12-07T00:34:50;3.50;99.90
8463;DHT22;4268;52.506;13.462;2022-12-07T00:37:15;3.50;99.90
8463;DHT22;4268;52.506;13.462;2022-12-07T00:39:41;3.40;99.90
8463;DHT22;4268;52.506;13.462;2022-12-07T00:42:06;3.40;99.90
8463;DHT22;4268;52.506;13.462;2022-12-07T00:44:32;3.40;99.90
8463;DHT22;4268;52.506;13.462;2022-12-07T00:46:57;3.40;99.90
8463;DHT22;4268;52.506;13.462;2022-12-07T00:49:23;3.40;99.90
8463;DHT22;4268;52.506;13.462;2022-12-07T00:51:49;3.30;99.90
8463;DHT22;4268;52.506;13.462;2022-12-07T00:54:14;3.30;99.90
8463;DHT22;4268;52.506;13.462;2022-12-07T00:56:40;3.30;99.90
8463;DHT22;4268;52.506;13.462;2022-12-07T00:59:05;3.30;99.90
8463;DHT22;4268;52.506;13.462;2022-12-07T01:01:33;3.30;99.90
8463;DHT22;4268;52.506;13.462;2022-12-07T01:04:00;3.20;99.90
8463;DHT22;4268;52.506;13.462;2022-12-07T01:06:29;3.20;99.90
8463;DHT22;4268;52.506;13.462;2022-12-07T01:08:55;3.20;99.90
8463;DHT22;4268;52.506;13.462;2022-12-07T01:11:23;3.10;99.90
8463;DHT22;4268;52.506;13.462;2022-12-07T01:13:53;3.00;99.90
8463;DHT22;4268;52.506;13.462;2022-12-07T01:16:20;3.00;99.90
8463;DHT22;4268;52.506;13.462;2022-12-07T01:18:48;2.90;99.90
8463;DHT22;4268;52.506;13.462;2022-12-07T01:21:20;2.90;99.90
8463;DHT22;4268;52.506;13.462;2022-12-07T01:23:49;2.90;99.90
8463;DHT22;4268;52.506;13.462;2022-12-07T01:26:17;2.90;99.90
8463;DHT22;4268;52.506;13.462;2022-12-07T01:28:43;2.90;99.90
8463;DHT22;4268;52.506;13.462;2022-12-07T01:31:11;2.90;99.90
8463;DHT22;4268;52.506;13.462;2022-12-07T01:33:38;2.90;99.90
8463;DHT22;4268;52.506;13.462;2022-12-07T01:36:12;3.00;99.90
8463;DHT22;4268;52.506;13.462;2022-12-07T01:38:38;3.00;99.90
8463;DHT22;4268;52.506;13.462;2022-12-07T01:41:04;3.00;99.90
8463;DHT22;4268;52.506;13.462;2022-12-07T01:43:31;3.00;99.90
8463;DHT22;4268;52.506;13.462;2022-12-07T01:45:57;2.90;99.90
8463;DHT22;4268;52.506;13.462;2022-12-07T01:48:36;3.00;99.90
8463;DHT22;4268;52.506;13.462;2022-12-07T01:51:06;3.00;99.90
8463;DHT22;4268;52.506;13.462;2022-12-07T01:53:36;3.00;99.90
8463;DHT22;4268;52.506;13.462;2022-12-07T01:56:04;2.90;99.90
8463;DHT22;4268;52.506;13.462;2022-12-07T01:58:30;3.00;99.90
8463;DHT22;4268;52.506;13.462;2022-12-07T02:00:56;3.00;99.90
8463;DHT22;4268;52.506;13.462;2022-12-07T02:03:31;3.00;99.90
8463;DHT22;4268;52.506;13.462;2022-12-07T02:05:58;3.80;99.90
8463;DHT22;4268;52.506;13.462;2022-12-07T02:08:24;3.10;99.90
8463;DHT22;4268;52.506;13.462;2022-12-07T02:10:50;2.40;99.90
8463;DHT22;4268;52.506;13.462;2022-12-07T02:13:24;3.10;99.90
8463;DHT22;4268;52.506;13.462;2022-12-07T02:16:21;3.10;99.90
8463;DHT22;4268;52.506;13.462;2022-12-07T02:19:07;3.10;99.90
8463;DHT22;4268;52.506;13.462;2022-12-07T02:22:10;3.00;99.90
8463;DHT22;4268;52.506;13.462;2022-12-07T02:25:04;3.00;99.90
8463;DHT22;4268;52.506;13.462;2022-12-07T02:27:46;3.00;99.90
8463;DHT22;4268;52.506;13.462;2022-12-07T02:30:20;2.90;99.90
8463;DHT22;4268;52.506;13.462;2022-12-07T02:33:00;2.90;99.90
8463;DHT22;4268;52.506;13.462;2022-12-07T02:38:37;2.90;99.90
8463;DHT22;4268;52.506;13.462;2022-12-07T02:41:11;2.90;99.90
8463;DHT22;4268;52.506;13.462;2022-12-07T02:43:42;2.90;99.90
8463;DHT22;4268;52.506;13.462;2022-12-07T02:46:11;2.80;99.90
8463;DHT22;4268;52.506;13.462;2022-12-07T02:48:39;2.80;99.90
8463;DHT22;4268;52.506;13.462;2022-12-07T02:51:06;2.80;99.90
8463;DHT22;4268;52.506;13.462;2022-12-07T02:55:59;2.80;99.90
8463;DHT22;4268;52.506;13.462;2022-12-07T02:58:36;2.70;99.90
8463;DHT22;4268;52.506;13.462;2022-12-07T03:01:15;2.70;99.90
8463;DHT22;4268;52.506;13.462;2022-12-07T03:03:58;2.70;99.90
8463;DHT22;4268;52.506;13.462;2022-12-07T03:06:41;2.70;99.90
8463;DHT22;4268;52.506;13.462;2022-12-07T03:09:15;2.70;99.90
8463;DHT22;4268;52.506;13.462;2022-12-07T03:11:47;2.60;99.90
8463;DHT22;4268;52.506;13.462;2022-12-07T03:14:25;2.70;99.90
8463;DHT22;4268;52.506;13.462;2022-12-07T03:17:24;2.70;99.90
8463;DHT22;4268;52.506;13.462;2022-12-07T03:19:49;2.90;99.90
8463;DHT22;4268;52.506;13.462;2022-12-07T03:22:17;2.70;99.90
8463;DHT22;4268;52.506;13.462;2022-12-07T03:24:53;2.70;99.90
8463;DHT22;4268;52.506;13.462;2022-12-07T03:27:24;2.70;99.90
8463;DHT22;4268;52.506;13.462;2022-12-07T03:30:03;2.70;99.90
8463;DHT22;4268;52.506;13.462;2022-12-07T03:35:19;2.80;99.90
8463;DHT22;4268;52.506;13.462;2022-12-07T03:40:39;2.70;99.90
8463;DHT22;4268;52.506;13.462;2022-12-07T03:43:06;2.70;99.90
8463;DHT22;4268;52.506;13.462;2022-12-07T03:45:44;2.70;99.90
8463;DHT22;4268;52.506;13.462;2022-12-07T03:51:34;2.70;99.90
8463;DHT22;4268;52.506;13.462;2022-12-07T03:54:13;2.70;99.90
8463;DHT22;4268;52.506;13.462;2022-12-07T03:56:40;2.70;99.90
8463;DHT22;4268;52.506;13.462;2022-12-07T03:59:07;2.70;99.90
8463;DHT22;4268;52.506;13.462;2022-12-07T04:01:32;2.60;99.90
8463;DHT22;4268;52.506;13.462;2022-12-07T04:03:58;2.70;99.90
8463;DHT22;4268;52.506;13.462;2022-12-07T04:06:23;2.70;99.90
8463;DHT22;4268;52.506;13.462;2022-12-07T04:08:49;2.70;99.90
8463;DHT22;4268;52.506;13.462;2022-12-07T04:11:14;2.70;99.90
8463;DHT22;4268;52.506;13.462;2022-12-07T04:13:40;2.70;99.90
8463;DHT22;4268;52.506;13.462;2022-12-07T04:16:24;2.70;99.90
8463;DHT22;4268;52.506;13.462;2022-12-07T04:18:49;2.80;99.90
8463;DHT22;4268;52.506;13.462;2022-12-07T04:21:14;2.70;99.90
8463;DHT22;4268;52.506;13.462;2022-12-07T04:23:40;2.70;99.90
8463;DHT22;4268;52.506;13.462;2022-12-07T04:26:05;2.70;99.90
8463;DHT22;4268;52.506;13.462;2022-12-07T04:28:31;2.60;99.90
8463;DHT22;4268;52.506;13.462;2022-12-07T04:30:56;2.60;99.90
8463;DHT22;4268;52.506;13.462;2022-12-07T04:33:22;2.60;99.90
8463;DHT22;4268;52.506;13.462;2022-12-07T04:35:47;2.60;99.90
8463;DHT22;4268;52.506;13.462;2022-12-07T04:38:13;2.60;99.90
8463;DHT22;4268;52.506;13.462;2022-12-07T04:40:38;2.60;99.90
8463;DHT22;4268;52.506;13.462;2022-12-07T04:43:04;2.60;99.90
8463;DHT22;4268;52.506;13.462;2022-12-07T04:45:30;2.60;99.90
8463;DHT22;4268;52.506;13.462;2022-12-07T04:47:55;2.60;99.90
8463;DHT22;4268;52.506;13.462;2022-12-07T04:50:21;2.70;99.90
8463;DHT22;4268;52.506;13.462;2022-12-07T04:52:46;3.00;99.90
8463;DHT22;4268;52.506;13.462;2022-12-07T04:55:12;2.80;99.90
8463;DHT22;4268;52.506;13.462;2022-12-07T04:57:37;2.60;99.90
8463;DHT22;4268;52.506;13.462;2022-12-07T05:00:03;2.60;99.90
8463;DHT22;4268;52.506;13.462;2022-12-07T05:02:28;2.70;99.90
8463;DHT22;4268;52.506;13.462;2022-12-07T05:04:54;2.80;99.90
8463;DHT22;4268;52.506;13.462;2022-12-07T05:07:19;2.60;99.90
8463;DHT22;4268;52.506;13.462;2022-12-07T05:09:45;2.70;99.90
8463;DHT22;4268;52.506;13.462;2022-12-07T05:12:10;2.70;99.90
8463;DHT22;4268;52.506;13.462;2022-12-07T05:14:36;2.70;99.90
8463;DHT22;4268;52.506;13.462;2022-12-07T05:17:01;2.70;99.90
8463;DHT22;4268;52.506;13.462;2022-12-07T05:19:27;2.70;99.90
8463;DHT22;4268;52.506;13.462;2022-12-07T05:21:53;2.70;99.90
8463;DHT22;4268;52.506;13.462;2022-12-07T05:24:18;2.70;99.90
8463;DHT22;4268;52.506;13.462;2022-12-07T05:26:44;2.70;99.90
8463;DHT22;4268;52.506;13.462;2022-12-07T05:29:14;2.80;99.90
8463;DHT22;4268;52.506;13.462;2022-12-07T05:31:41;2.80;99.90
8463;DHT22;4268;52.506;13.462;2022-12-07T05:34:06;2.70;99.90
8463;DHT22;4268;52.506;13.462;2022-12-07T05:36:32;2.40;99.90
8463;DHT22;4268;52.506;13.462;2022-12-07T05:38:58;2.80;99.90
8463;DHT22;4268;52.506;13.462;2022-12-07T05:41:24;2.80;99.90
8463;DHT22;4268;52.506;13.462;2022-12-07T05:44:08;2.80;99.90
8463;DHT22;4268;52.506;13.462;2022-12-07T05:46:34;2.90;99.90
8463;DHT22;4268;52.506;13.462;2022-12-07T05:48:59;2.90;99.90
8463;DHT22;4268;52.506;13.462;2022-12-07T05:51:26;2.90;99.90
8463;DHT22;4268;52.506;13.462;2022-12-07T05:53:52;3.00;99.90
8463;DHT22;4268;52.506;13.462;2022-12-07T05:56:17;3.00;99.90
8463;DHT22;4268;52.506;13.462;2022-12-07T05:58:43;2.30;99.90
8463;DHT22;4268;52.506;13.462;2022-12-07T06:01:27;2.90;99.90
8463;DHT22;4268;52.506;13.462;2022-12-07T06:03:52;3.10;99.90
8463;DHT22;4268;52.506;13.462;2022-12-07T06:06:17;3.10;99.90
8463;DHT22;4268;52.506;13.462;2022-12-07T06:08:43;3.10;99.90
8463;DHT22;4268;52.506;13.462;2022-12-07T06:11:08;3.20;99.90
8463;DHT22;4268;52.506;13.462;2022-12-07T06:13:52;3.10;99.90
8463;DHT22;4268;52.506;13.462;2022-12-07T06:16:18;3.20;99.90
8463;DHT22;4268;52.506;13.462;2022-12-07T06:18:44;3.10;99.90
8463;DHT22;4268;52.506;13.462;2022-12-07T06:21:09;3.20;99.90
8463;DHT22;4268;52.506;13.462;2022-12-07T06:23:36;3.20;99.90
8463;DHT22;4268;52.506;13.462;2022-12-07T06:26:01;3.20;99.90
8463;DHT22;4268;52.506;13.462;2022-12-07T06:28:27;3.20;99.90
8463;DHT22;4268;52.506;13.462;2022-12-07T06:30:59;3.30;99.90
8463;DHT22;4268;52.506;13.462;2022-12-07T06:33:25;3.30;99.90
8463;DHT22;4268;52.506;13.462;2022-12-07T06:35:51;3.30;99.90
8463;DHT22;4268;52.506;13.462;2022-12-07T06:38:16;3.30;99.90
8463;DHT22;4268;52.506;13.462;2022-12-07T06:40:42;3.30;99.90
8463;DHT22;4268;52.506;13.462;2022-12-07T06:43:07;3.40;99.90
8463;DHT22;4268;52.506;13.462;2022-12-07T06:45:33;3.40;99.90
8463;DHT22;4268;52.506;13.462;2022-12-07T06:47:58;3.40;99.90
8463;DHT22;4268;52.506;13.462;2022-12-07T06:50:24;3.40;99.90
8463;DHT22;4268;52.506;13.462;2022-12-07T06:52:51;3.40;99.90
8463;DHT22;4268;52.506;13.462;2022-12-07T06:55:16;3.40;99.90
8463;DHT22;4268;52.506;13.462;2022-12-07T06:57:42;3.50;99.90
8463;DHT22;4268;52.506;13.462;2022-12-07T07:00:08;3.50;99.90
8463;DHT22;4268;52.506;13.462;2022-12-07T07:02:34;3.50;99.90
8463;DHT22;4268;52.506;13.462;2022-12-07T07:04:59;3.50;99.90
8463;DHT22;4268;52.506;13.462;2022-12-07T07:07:24;3.60;99.90
8463;DHT22;4268;52.506;13.462;2022-12-07T07:09:50;3.10;99.90
8463;DHT22;4268;52.506;13.462;2022-12-07T07:12:15;3.60;99.90
8463;DHT22;4268;52.506;13.462;2022-12-07T07:14:41;3.50;99.90
8463;DHT22;4268;52.506;13.462;2022-12-07T07:17:07;3.50;99.90
8463;DHT22;4268;52.506;13.462;2022-12-07T07:19:32;3.60;99.90
8463;DHT22;4268;52.506;13.462;2022-12-07T07:21:58;3.70;99.90
8463;DHT22;4268;52.506;13.462;2022-12-07T07:24:23;3.70;99.90
8463;DHT22;4268;52.506;13.462;2022-12-07T07:26:49;3.70;99.90
8463;DHT22;4268;52.506;13.462;2022-12-07T07:29:14;3.80;99.90
8463;DHT22;4268;52.506;13.462;2022-12-07T07:31:40;3.80;99.90
8463;DHT22;4268;52.506;13.462;2022-12-07T07:34:05;3.80;99.90
8463;DHT22;4268;52.506;13.462;2022-12-07T07:36:31;3.90;99.90
8463;DHT22;4268;52.506;13.462;2022-12-07T07:38:56;3.90;99.90
8463;DHT22;4268;52.506;13.462;2022-12-07T07:41:22;4.00;99.90
8463;DHT22;4268;52.506;13.462;2022-12-07T07:43:49;4.00;99.90
8463;DHT22;4268;52.506;13.462;2022-12-07T07:46:14;4.00;99.90
8463;DHT22;4268;52.506;13.462;2022-12-07T07:48:40;4.00;99.90
8463;DHT22;4268;52.506;13.462;2022-12-07T07:51:06;4.00;99.90
8463;DHT22;4268;52.506;13.462;2022-12-07T07:53:32;3.90;99.90
8463;DHT22;4268;52.506;13.462;2022-12-07T07:55:58;3.90;99.90
8463;DHT22;4268;52.506;13.462;2022-12-07T07:58:24;4.00;99.90
8463;DHT22;4268;52.506;13.462;2022-12-07T08:00:49;4.10;99.90
8463;DHT22;4268;52.506;13.462;2022-12-07T08:03:15;4.10;99.90
8463;DHT22;4268;52.506;13.462;2022-12-07T08:05:40;4.10;99.90
8463;DHT22;4268;52.506;13.462;2022-12-07T08:08:06;4.10;99.90
8463;DHT22;4268;52.506;13.462;2022-12-07T08:10:32;4.10;99.90
8463;DHT22;4268;52.506;13.462;2022-12-07T08:12:58;4.10;99.90
8463;DHT22;4268;52.506;13.462;2022-12-07T08:15:44;4.10;99.90
8463;DHT22;4268;52.506;13.462;2022-12-07T08:18:10;4.10;99.90
8463;DHT22;4268;52.506;13.462;2022-12-07T08:20:38;4.10;99.90
8463;DHT22;4268;52.506;13.462;2022-12-07T08:23:04;4.20;99.90
8463;DHT22;4268;52.506;13.462;2022-12-07T08:25:30;4.20;99.90
8463;DHT22;4268;52.506;13.462;2022-12-07T08:27:55;4.20;99.90
8463;DHT22;4268;52.506;13.462;2022-12-07T08:30:21;4.20;99.90
8463;DHT22;4268;52.506;13.462;2022-12-07T08:32:47;4.00;99.90
8463;DHT22;4268;52.506;13.462;2022-12-07T08:35:13;4.20;99.90
8463;DHT22;4268;52.506;13.462;2022-12-07T08:37:39;4.30;99.90
8463;DHT22;4268;52.506;13.462;2022-12-07T08:40:06;4.30;99.90
8463;DHT22;4268;52.506;13.462;2022-12-07T08:42:32;4.40;99.90
8463;DHT22;4268;52.506;13.462;2022-12-07T08:45:13;4.40;99.90
8463;DHT22;4268;52.506;13.462;2022-12-07T08:47:44;4.50;99.90
8463;DHT22;4268;52.506;13.462;2022-12-07T08:50:10;4.50;99.90
8463;DHT22;4268;52.506;13.462;2022-12-07T08:52:37;4.50;99.90
8463;DHT22;4268;52.506;13.462;2022-12-07T08:55:03;4.50;99.90
8463;DHT22;4268;52.506;13.462;2022-12-07T08:57:30;4.50;99.90
8463;DHT22;4268;52.506;13.462;2022-12-07T08:59:55;4.50;99.90
8463;DHT22;4268;52.506;13.462;2022-12-07T09:02:21;4.50;99.90
8463;DHT22;4268;52.506;13.462;2022-12-07T09:04:46;4.50;99.90
8463;DHT22;4268;52.506;13.462;2022-12-07T09:07:12;4.50;99.90
8463;DHT22;4268;52.506;13.462;2022-12-07T09:09:38;4.60;99.90
8463;DHT22;4268;52.506;13.462;2022-12-07T09:12:03;4.60;99.90
8463;DHT22;4268;52.506;13.462;2022-12-07T09:14:29;4.60;99.90
8463;DHT22;4268;52.506;13.462;2022-12-07T09:16:55;4.60;99.90
8463;DHT22;4268;52.506;13.462;2022-12-07T09:19:20;4.60;99.90
8463;DHT22;4268;52.506;13.462;2022-12-07T09:21:46;4.70;99.90
8463;DHT22;4268;52.506;13.462;2022-12-07T09:24:12;4.70;99.90
8463;DHT22;4268;52.506;13.462;2022-12-07T09:26:38;4.70;99.90
8463;DHT22;4268;52.506;13.462;2022-12-07T09:29:05;4.70;99.90
8463;DHT22;4268;52.506;13.462;2022-12-07T09:31:31;4.70;99.90
8463;DHT22;4268;52.506;13.462;2022-12-07T09:33:58;4.70;99.90
8463;DHT22;4268;52.506;13.462;2022-12-07T09:36:24;4.70;99.90
8463;DHT22;4268;52.506;13.462;2022-12-07T09:38:50;4.60;99.90
8463;DHT22;4268;52.506;13.462;2022-12-07T09:41:16;4.60;99.90
8463;DHT22;4268;52.506;13.462;2022-12-07T09:43:42;4.50;99.90
8463;DHT22;4268;52.506;13.462;2022-12-07T09:46:12;4.50;99.90
8463;DHT22;4268;52.506;13.462;2022-12-07T09:48:38;4.40;99.90
8463;DHT22;4268;52.506;13.462;2022-12-07T09:53:41;4.40;99.90
8463;DHT22;4268;52.506;13.462;2022-12-07T09:56:11;4.30;99.90
8463;DHT22;4268;52.506;13.462;2022-12-07T09:58:38;4.40;99.90
8463;DHT22;4268;52.506;13.462;2022-12-07T10:01:19;4.40;99.90
8463;DHT22;4268;52.506;13.462;2022-12-07T10:04:12;4.40;99.90
8463;DHT22;4268;52.506;13.462;2022-12-07T10:06:36;4.30;99.90
8463;DHT22;4268;52.506;13.462;2022-12-07T10:09:02;4.40;99.90
8463;DHT22;4268;52.506;13.462;2022-12-07T10:11:28;4.30;99.90
8463;DHT22;4268;52.506;13.462;2022-12-07T10:13:54;4.40;99.90
8463;DHT22;4268;52.506;13.462;2022-12-07T10:16:40;4.40;99.90
8463;DHT22;4268;52.506;13.462;2022-12-07T10:19:29;4.40;99.90
8463;DHT22;4268;52.506;13.462;2022-12-07T10:22:12;4.40;99.90
8463;DHT22;4268;52.506;13.462;2022-12-07T10:24:39;4.40;99.90
8463;DHT22;4268;52.506;13.462;2022-12-07T10:27:29;4.30;99.90
8463;DHT22;4268;52.506;13.462;2022-12-07T10:29:55;4.40;99.90
8463;DHT22;4268;52.506;13.462;2022-12-07T10:35:19;4.40;99.90
8463;DHT22;4268;52.506;13.462;2022-12-07T10:37:45;4.40;99.90
8463;DHT22;4268;52.506;13.462;2022-12-07T10:59:31;4.30;99.90
8463;DHT22;4268;52.506;13.462;2022-12-07T11:02:20;4.20;99.90
8463;DHT22;4268;52.506;13.462;2022-12-07T11:05:12;4.20;99.90
8463;DHT22;4268;52.506;13.462;2022-12-07T11:07:43;4.30;99.90
8463;DHT22;4268;52.506;13.462;2022-12-07T11:10:19;4.40;99.90
8463;DHT22;4268;52.506;13.462;2022-12-07T11:16:14;4.50;99.90
8463;DHT22;4268;52.506;13.462;2022-12-07T11:21:47;4.50;99.90
8463;DHT22;4268;52.506;13.462;2022-12-07T11:24:19;4.50;99.90
8463;DHT22;4268;52.506;13.462;2022-12-07T11:29:54;4.60;99.90
8463;DHT22;4268;52.506;13.462;2022-12-07T11:32:44;4.70;99.90
8463;DHT22;4268;52.506;13.462;2022-12-07T11:35:21;4.70;99.90
8463;DHT22;4268;52.506;13.462;2022-12-07T11:37:51;4.70;99.90
8463;DHT22;4268;52.506;13.462;2022-12-07T11:40:30;4.70;99.90
8463;DHT22;4268;52.506;13.462;2022-12-07T11:43:23;4.60;99.90
8463;DHT22;4268;52.506;13.462;2022-12-07T11:46:12;4.60;99.90
8463;DHT22;4268;52.506;13.462;2022-12-07T11:48:43;4.60;99.90
8463;DHT22;4268;52.506;13.462;2022-12-07T11:51:11;4.60;99.90
8463;DHT22;4268;52.506;13.462;2022-12-07T11:56:19;4.70;99.90
8463;DHT22;4268;52.506;13.462;2022-12-07T11:59:19;4.80;99.90
8463;DHT22;4268;52.506;13.462;2022-12-07T12:02:10;4.80;99.90
8463;DHT22;4268;52.506;13.462;2022-12-07T12:04:55;4.80;99.90
8463;DHT22;4268;52.506;13.462;2022-12-07T12:07:26;4.80;99.90
8463;DHT22;4268;52.506;13.462;2022-12-07T12:09:59;4.80;99.90
8463;DHT22;4268;52.506;13.462;2022-12-07T12:12:48;4.80;99.90
8463;DHT22;4268;52.506;13.462;2022-12-07T12:15:29;4.80;99.90
8463;DHT22;4268;52.506;13.462;2022-12-07T12:18:12;4.90;99.90
8463;DHT22;4268;52.506;13.462;2022-12-07T12:20:49;4.90;99.90
8463;DHT22;4268;52.506;13.462;2022-12-07T12:23:26;5.00;99.90
8463;DHT22;4268;52.506;13.462;2022-12-07T12:25:56;5.00;99.90
8463;DHT22;4268;52.506;13.462;2022-12-07T12:28:27;5.00;99.90
8463;DHT22;4268;52.506;13.462;2022-12-07T12:31:15;5.00;99.90
8463;DHT22;4268;52.506;13.462;2022-12-07T12:33:44;5.10;99.90
8463;DHT22;4268;52.506;13.462;2022-12-07T12:39:16;5.10;99.90
8463;DHT22;4268;52.506;13.462;2022-12-07T12:46:49;5.00;99.90
8463;DHT22;4268;52.506;13.462;2022-12-07T12:51:48;5.00;99.90
8463;DHT22;4268;52.506;13.462;2022-12-07T12:54:24;5.00;99.90
8463;DHT22;4268;52.506;13.462;2022-12-07T13:00:00;5.00;99.90
8463;DHT22;4268;52.506;13.462;2022-12-07T13:02:30;5.00;99.90
8463;DHT22;4268;52.506;13.462;2022-12-07T13:05:18;5.00;99.90
8463;DHT22;4268;52.506;13.462;2022-12-07T13:23:51;5.00;99.90
8463;DHT22;4268;52.506;13.462;2022-12-07T13:26:41;4.90;99.90
8463;DHT22;4268;52.506;13.462;2022-12-07T13:29:16;4.90;99.90
8463;DHT22;4268;52.506;13.462;2022-12-07T13:31:54;4.90;99.90
8463;DHT22;4268;52.506;13.462;2022-12-07T13:36:58;4.90;99.90
8463;DHT22;4268;52.506;13.462;2022-12-07T13:39:26;4.90;99.90
8463;DHT22;4268;52.506;13.462;2022-12-07T13:41:54;5.00;99.90
8463;DHT22;4268;52.506;13.462;2022-12-07T13:44:20;5.00;99.90
8463;DHT22;4268;52.506;13.462;2022-12-07T13:47:09;5.00;99.90
8463;DHT22;4268;52.506;13.462;2022-12-07T13:49:57;5.00;99.90
8463;DHT22;4268;52.506;13.462;2022-12-07T13:52:26;5.00;99.90
8463;DHT22;4268;52.506;13.462;2022-12-07T13:57:31;5.00;99.90
8463;DHT22;4268;52.506;13.462;2022-12-07T14:00:03;5.00;99.90
8463;DHT22;4268;52.506;13.462;2022-12-07T14:02:32;5.00;99.90
8463;DHT22;4268;52.506;13.462;2022-12-07T14:05:24;5.00;99.90
8463;DHT22;4268;52.506;13.462;2022-12-07T14:08:05;5.00;99.90
8463;DHT22;4268;52.506;13.462;2022-12-07T14:10:34;5.00;99.90
8463;DHT22;4268;52.506;13.462;2022-12-07T14:13:02;4.90;99.90
8463;DHT22;4268;52.506;13.462;2022-12-07T14:15:32;4.90;99.90
8463;DHT22;4268;52.506;13.462;2022-12-07T14:17:58;4.90;99.90
8463;DHT22;4268;52.506;13.462;2022-12-07T14:20:34;4.90;99.90
8463;DHT22;4268;52.506;13.462;2022-12-07T14:23:00;4.90;99.90
8463;DHT22;4268;52.506;13.462;2022-12-07T14:25:47;4.90;99.90
8463;DHT22;4268;52.506;13.462;2022-12-07T14:28:30;4.80;99.90
8463;DHT22;4268;52.506;13.462;2022-12-07T14:30:57;4.80;99.90
8463;DHT22;4268;52.506;13.462;2022-12-07T14:33:24;4.80;99.90
8463;DHT22;4268;52.506;13.462;2022-12-07T14:35:50;4.80;99.90
8463;DHT22;4268;52.506;13.462;2022-12-07T14:38:15;4.80;99.90
8463;DHT22;4268;52.506;13.462;2022-12-07T14:40:41;4.80;99.90
8463;DHT22;4268;52.506;13.462;2022-12-07T14:43:11;4.70;99.90
8463;DHT22;4268;52.506;13.462;2022-12-07T14:45:37;4.70;99.90
8463;DHT22;4268;52.506;13.462;2022-12-07T14:48:05;4.60;99.90
8463;DHT22;4268;52.506;13.462;2022-12-07T14:50:35;4.60;99.90
8463;DHT22;4268;52.506;13.462;2022-12-07T14:53:07;4.60;99.90
8463;DHT22;4268;52.506;13.462;2022-12-07T14:55:34;4.60;99.90
8463;DHT22;4268;52.506;13.462;2022-12-07T14:58:00;4.50;99.90
8463;DHT22;4268;52.506;13.462;2022-12-07T15:00:27;4.40;99.90
8463;DHT22;4268;52.506;13.462;2022-12-07T15:02:53;4.40;99.90
8463;DHT22;4268;52.506;13.462;2022-12-07T15:05:19;4.40;99.90
8463;DHT22;4268;52.506;13.462;2022-12-07T15:07:45;4.30;99.90
8463;DHT22;4268;52.506;13.462;2022-12-07T15:10:22;4.30;99.90
8463;DHT22;4268;52.506;13.462;2022-12-07T15:12:48;4.20;99.90
8463;DHT22;4268;52.506;13.462;2022-12-07T15:15:14;4.10;99.90
8463;DHT22;4268;52.506;13.462;2022-12-07T15:17:39;4.10;99.90
8463;DHT22;4268;52.506;13.462;2022-12-07T15:20:07;4.10;99.90
8463;DHT22;4268;52.506;13.462;2022-12-07T15:22:34;4.00;99.90
8463;DHT22;4268;52.506;13.462;2022-12-07T15:25:00;4.00;99.90
8463;DHT22;4268;52.506;13.462;2022-12-07T15:27:26;4.00;99.90
8463;DHT22;4268;52.506;13.462;2022-12-07T15:29:52;3.90;99.90
8463;DHT22;4268;52.506;13.462;2022-12-07T15:32:19;3.90;99.90
8463;DHT22;4268;52.506;13.462;2022-12-07T15:34:44;3.90;99.90
8463;DHT22;4268;52.506;13.462;2022-12-07T15:37:09;3.90;99.90
8463;DHT22;4268;52.506;13.462;2022-12-07T15:39:36;3.80;99.90
8463;DHT22;4268;52.506;13.462;2022-12-07T15:42:02;3.80;99.90
8463;DHT22;4268;52.506;13.462;2022-12-07T15:44:27;3.90;99.90
8463;DHT22;4268;52.506;13.462;2022-12-07T15:47:11;3.90;99.90
8463;DHT22;4268;52.506;13.462;2022-12-07T15:49:37;3.90;99.90
8463;DHT22;4268;52.506;13.462;2022-12-07T15:52:03;3.90;99.90
8463;DHT22;4268;52.506;13.462;2022-12-07T15:54:29;4.00;99.90
8463;DHT22;4268;52.506;13.462;2022-12-07T15:56:55;4.00;99.90
8463;DHT22;4268;52.506;13.462;2022-12-07T15:59:22;4.10;99.90
8463;DHT22;4268;52.506;13.462;2022-12-07T16:01:47;4.10;99.90
8463;DHT22;4268;52.506;13.462;2022-12-07T16:04:13;4.10;99.90
8463;DHT22;4268;52.506;13.462;2022-12-07T16:06:38;4.10;99.90
8463;DHT22;4268;52.506;13.462;2022-12-07T16:09:05;4.10;99.90
8463;DHT22;4268;52.506;13.462;2022-12-07T16:11:30;4.10;99.90
8463;DHT22;4268;52.506;13.462;2022-12-07T16:13:56;4.10;99.90
8463;DHT22;4268;52.506;13.462;2022-12-07T16:16:21;4.10;99.90
8463;DHT22;4268;52.506;13.462;2022-12-07T16:18:48;4.10;99.90
8463;DHT22;4268;52.506;13.462;2022-12-07T16:21:14;4.10;99.90
8463;DHT22;4268;52.506;13.462;2022-12-07T16:23:40;4.00;99.90
8463;DHT22;4268;52.506;13.462;2022-12-07T16:26:08;4.00;99.90
8463;DHT22;4268;52.506;13.462;2022-12-07T16:28:35;3.90;99.90
8463;DHT22;4268;52.506;13.462;2022-12-07T16:31:03;3.90;99.90
8463;DHT22;4268;52.506;13.462;2022-12-07T16:33:29;3.80;99.90
8463;DHT22;4268;52.506;13.462;2022-12-07T16:35:54;3.80;99.90
8463;DHT22;4268;52.506;13.462;2022-12-07T16:38:20;3.80;99.90
8463;DHT22;4268;52.506;13.462;2022-12-07T16:40:47;3.80;99.90
8463;DHT22;4268;52.506;13.462;2022-12-07T16:43:13;3.80;99.90
8463;DHT22;4268;52.506;13.462;2022-12-07T16:45:38;3.80;99.90
8463;DHT22;4268;52.506;13.462;2022-12-07T16:48:04;3.70;99.90
8463;DHT22;4268;52.506;13.462;2022-12-07T16:50:30;3.70;99.90
8463;DHT22;4268;52.506;13.462;2022-12-07T16:52:55;3.70;99.90
8463;DHT22;4268;52.506;13.462;2022-12-07T16:55:21;3.60;99.90
8463;DHT22;4268;52.506;13.462;2022-12-07T16:57:46;3.50;99.90
8463;DHT22;4268;52.506;13.462;2022-12-07T17:00:12;3.60;99.90
8463;DHT22;4268;52.506;13.462;2022-12-07T17:02:38;3.50;99.90
8463;DHT22;4268;52.506;13.462;2022-12-07T17:05:03;3.50;99.90
8463;DHT22;4268;52.506;13.462;2022-12-07T17:07:29;3.50;99.90
8463;DHT22;4268;52.506;13.462;2022-12-07T17:09:54;3.40;99.90
8463;DHT22;4268;52.506;13.462;2022-12-07T17:12:20;3.50;99.90
8463;DHT22;4268;52.506;13.462;2022-12-07T17:14:45;3.40;99.90
8463;DHT22;4268;52.506;13.462;2022-12-07T17:17:29;3.30;99.90
8463;DHT22;4268;52.506;13.462;2022-12-07T17:19:55;3.30;99.90
8463;DHT22;4268;52.506;13.462;2022-12-07T17:22:20;3.30;99.90
8463;DHT22;4268;52.506;13.462;2022-12-07T17:24:46;3.30;99.90
8463;DHT22;4268;52.506;13.462;2022-12-07T17:27:11;3.30;99.90
8463;DHT22;4268;52.506;13.462;2022-12-07T17:29:37;3.20;99.90
8463;DHT22;4268;52.506;13.462;2022-12-07T17:32:02;3.30;99.90
8463;DHT22;4268;52.506;13.462;2022-12-07T17:34:28;3.20;99.90
8463;DHT22;4268;52.506;13.462;2022-12-07T17:36:53;3.20;99.90
8463;DHT22;4268;52.506;13.462;2022-12-07T17:39:19;3.20;99.90
8463;DHT22;4268;52.506;13.462;2022-12-07T17:41:45;3.20;99.90